TAF

Looking For Latest

Worst Weather Category
LocationTimeVisiblityCeilingWeatherWind SpeedWind Gust
KSNA122320Z61000NONE SW 9NA NA

  • TAFSNA TAF KSNA 122320Z 1300/1324 22009KT P6SM FEW060 FEW250
          FM130300 VRB05KT P6SM FEW009 SCT200
          FM131200 17005KT P6SM BKN010
          FM131500 16005KT P6SM SCT012
          FM131800 20008KT P6SM FEW250 =